Time;durP1;ratioP1;P1;durP2;ratioP2;P2;SDS_P1;SDS_P2;PMS_P1;PMS_P2;Temp;Humidity;BMP_temperature;BMP_pressure;BME280_temperature;BME280_humidity;BME280_pressure;Samples;Min_cycle;Max_cycle;Signal;HPM_P1;HPM_P2
2022/07/18 00:00:24;;;;;;;7.97;2.57;;;13.90;60.70;;;;;;5014924;28;20453;-82
2022/07/18 00:02:50;;;;;;;6.17;3.10;;;13.90;60.70;;;;;;5024860;28;20472;-83
2022/07/18 00:05:17;;;;;;;6.50;2.93;;;13.90;60.20;;;;;;5034166;28;20953;-83
2022/07/18 00:07:44;;;;;;;5.50;2.40;;;13.80;59.40;;;;;;5025030;28;20461;-83
2022/07/18 00:10:11;;;;;;;6.67;2.93;;;13.70;61.60;;;;;;5014900;28;20831;-83
2022/07/18 00:12:39;;;;;;;8.07;2.63;;;13.60;63.00;;;;;;5028333;28;20484;-83
2022/07/18 00:15:07;;;;;;;7.17;2.80;;;13.60;63.00;;;;;;5035704;28;20460;-85
2022/07/18 00:17:34;;;;;;;7.10;3.90;;;13.60;64.30;;;;;;5021288;28;20453;-85
2022/07/18 00:20:00;;;;;;;6.87;3.37;;;13.50;63.20;;;;;;5015247;28;20464;-83
2022/07/18 00:22:27;;;;;;;6.33;3.60;;;13.50;64.30;;;;;;5026622;28;20468;-84
2022/07/18 00:24:54;;;;;;;5.47;3.33;;;13.50;64.20;;;;;;5034394;28;20463;-86
2022/07/18 00:27:20;;;;;;;5.90;3.40;;;13.50;64.20;;;;;;5024270;28;20457;-83
2022/07/18 00:29:49;;;;;;;6.93;4.13;;;13.40;64.30;;;;;;5014693;28;20453;-83
2022/07/18 00:32:15;;;;;;;10.23;3.87;;;13.30;64.00;;;;;;5023433;28;20480;-83
2022/07/18 00:34:42;;;;;;;5.27;3.60;;;13.30;65.50;;;;;;5034473;28;20453;-83
2022/07/18 00:37:09;;;;;;;7.90;4.53;;;13.30;65.60;;;;;;5032596;28;20454;-85
2022/07/18 00:39:36;;;;;;;9.63;5.10;;;13.30;66.80;;;;;;5034332;28;20451;-83
2022/07/18 00:42:03;;;;;;;9.60;8.77;;;13.20;67.90;;;;;;5028369;28;20473;-83
2022/07/18 00:44:30;;;;;;;9.67;8.87;;;13.20;70.10;;;;;;5014500;28;20911;-83
2022/07/18 00:47:00;;;;;;;11.50;10.60;;;13.20;70.70;;;;;;5018465;28;20448;-83
2022/07/18 00:49:28;;;;;;;10.63;9.53;;;13.10;71.90;;;;;;5034116;28;20475;-86
2022/07/18 00:51:54;;;;;;;10.50;9.50;;;13.10;71.10;;;;;;5030840;28;20469;-83
2022/07/18 00:54:21;;;;;;;11.37;10.57;;;13.10;71.90;;;;;;5013422;28;20764;-83
2022/07/18 00:56:49;;;;;;;12.17;10.50;;;13.00;71.90;;;;;;5015958;28;20484;-83
2022/07/18 00:59:17;;;;;;;10.53;9.70;;;13.00;73.60;;;;;;5033819;28;20459;-83
2022/07/18 01:01:43;;;;;;;9.60;8.70;;;13.00;74.90;;;;;;5026552;28;20473;-83
2022/07/18 01:04:13;;;;;;;7.90;7.20;;;12.90;74.60;;;;;;5013798;28;20460;-86
2022/07/18 01:06:40;;;;;;;7.93;7.13;;;12.90;75.20;;;;;;5020287;28;20449;-83
2022/07/18 01:09:07;;;;;;;10.20;8.20;;;12.90;74.90;;;;;;5033759;28;20448;-83
2022/07/18 01:11:34;;;;;;;9.47;8.50;;;13.00;75.20;;;;;;5028484;28;20484;-83
2022/07/18 01:14:02;;;;;;;7.53;5.73;;;13.00;75.70;;;;;;5013735;28;20960;-83
2022/07/18 01:16:29;;;;;;;9.60;4.80;;;12.90;74.70;;;;;;5017403;28;20803;-85
2022/07/18 01:18:56;;;;;;;9.07;4.40;;;12.90;74.50;;;;;;5033877;28;20456;-83
2022/07/18 01:21:24;;;;;;;6.80;4.00;;;12.90;72.90;;;;;;5031343;28;20456;-83
2022/07/18 01:23:51;;;;;;;14.80;3.80;;;13.00;71.80;;;;;;5013621;28;20456;-86
2022/07/18 01:26:18;;;;;;;6.93;3.30;;;13.10;71.20;;;;;;5014015;28;20453;-83
2022/07/18 01:28:47;;;;;;;13.83;2.67;;;13.20;68.50;;;;;;5033594;28;20452;-83
2022/07/18 01:31:14;;;;;;;7.60;1.93;;;13.20;67.80;;;;;;5033488;28;20485;-84
2022/07/18 01:33:41;;;;;;;9.67;2.40;;;13.20;65.10;;;;;;5033569;28;20472;-84
2022/07/18 01:36:08;;;;;;;6.37;2.10;;;13.20;63.90;;;;;;5032900;28;20984;-86
2022/07/18 01:38:37;;;;;;;5.47;2.70;;;13.20;65.40;;;;;;5015003;28;20449;-83
2022/07/18 01:41:04;;;;;;;7.10;2.50;;;13.20;66.90;;;;;;5013445;28;20512;-86
2022/07/18 01:43:32;;;;;;;7.47;2.97;;;13.10;66.10;;;;;;5029792;28;20479;-83
2022/07/18 01:45:59;;;;;;;4.70;2.67;;;13.10;67.40;;;;;;5033048;28;20479;-83
2022/07/18 01:48:25;;;;;;;7.30;2.67;;;13.00;66.10;;;;;;5017887;28;20459;-83
2022/07/18 01:50:53;;;;;;;5.60;2.40;;;13.00;65.80;;;;;;5014799;28;20453;-83
2022/07/18 01:53:21;;;;;;;6.57;2.77;;;12.90;67.70;;;;;;5015295;28;20477;-83
2022/07/18 01:55:49;;;;;;;6.43;2.30;;;12.80;68.50;;;;;;5032589;28;20452;-83
2022/07/18 01:58:15;;;;;;;4.93;2.63;;;12.70;69.30;;;;;;5032127;28;20452;-83
2022/07/18 02:00:42;;;;;;;7.30;3.77;;;12.60;69.50;;;;;;5013286;28;20453;-83
2022/07/18 02:03:09;;;;;;;12.83;3.77;;;12.60;69.70;;;;;;5013209;28;20480;-86
2022/07/18 02:05:36;;;;;;;6.70;3.57;;;12.60;71.50;;;;;;5026552;28;20461;-84
2022/07/18 02:08:03;;;;;;;5.00;3.23;;;12.50;70.80;;;;;;5013293;28;20472;-83
2022/07/18 02:10:30;;;;;;;5.30;3.60;;;12.50;71.30;;;;;;5013172;28;20453;-83
2022/07/18 02:12:58;;;;;;;6.50;3.80;;;12.40;71.70;;;;;;5013360;28;20485;-83
2022/07/18 02:15:26;;;;;;;7.43;3.50;;;12.40;71.20;;;;;;5029176;28;20449;-83
2022/07/18 02:17:52;;;;;;;6.23;3.53;;;12.40;70.70;;;;;;5033102;28;20459;-83
2022/07/18 02:20:19;;;;;;;6.10;4.30;;;12.40;72.50;;;;;;5031069;28;20457;-83
2022/07/18 02:22:46;;;;;;;7.33;4.20;;;12.30;72.20;;;;;;5032772;28;20913;-87
2022/07/18 02:25:13;;;;;;;7.53;3.80;;;12.40;72.90;;;;;;5017335;28;20452;-84
2022/07/18 02:27:40;;;;;;;5.60;3.80;;;12.40;71.20;;;;;;5013240;28;20504;-83
2022/07/18 02:30:11;;;;;;;5.73;3.20;;;12.40;70.30;;;;;;5026616;28;20452;-83
2022/07/18 02:32:38;;;;;;;7.40;4.47;;;12.40;71.30;;;;;;5032722;28;20484;-83
2022/07/18 02:35:07;;;;;;;10.07;4.33;;;12.40;71.90;;;;;;5019537;28;20457;-84
2022/07/18 02:37:34;;;;;;;6.70;4.43;;;12.50;71.20;;;;;;5017169;28;20452;-83
2022/07/18 02:40:01;;;;;;;7.10;5.03;;;12.40;71.30;;;;;;5028882;28;20453;-84
2022/07/18 02:42:28;;;;;;;8.30;5.43;;;12.40;71.20;;;;;;5014724;28;20465;-86
2022/07/18 02:44:54;;;;;;;6.73;3.40;;;12.40;71.20;;;;;;5022276;28;20456;-81
2022/07/18 02:47:22;;;;;;;4.93;2.43;;;12.40;70.00;;;;;;5023387;28;20489;-81
2022/07/18 02:49:49;;;;;;;8.60;3.60;;;12.30;69.60;;;;;;5031949;28;20448;-81
2022/07/18 02:52:16;;;;;;;9.53;3.93;;;12.30;71.10;;;;;;5026000;28;20480;-81
2022/07/18 02:54:43;;;;;;;6.47;3.30;;;12.30;70.50;;;;;;5012605;28;20540;-81
2022/07/18 02:57:10;;;;;;;7.10;3.40;;;12.20;71.00;;;;;;5015044;28;20461;-81
2022/07/18 02:59:37;;;;;;;5.93;4.17;;;12.20;70.60;;;;;;5035150;28;20463;-85
2022/07/18 03:02:03;;;;;;;6.37;4.37;;;12.10;71.00;;;;;;5040645;28;20475;-84
2022/07/18 03:04:32;;;;;;;6.63;5.30;;;12.10;72.20;;;;;;5035563;28;20512;-84
2022/07/18 03:06:59;;;;;;;8.77;5.00;;;12.00;73.20;;;;;;5036500;28;20952;-85
2022/07/18 03:09:27;;;;;;;9.40;8.50;;;12.10;73.80;;;;;;5036070;28;20456;-84
2022/07/18 03:11:54;;;;;;;10.83;10.13;;;12.10;74.80;;;;;;5025587;28;20475;-84
2022/07/18 03:14:21;;;;;;;9.37;8.47;;;12.00;75.50;;;;;;5036480;28;20857;-84
2022/07/18 03:16:47;;;;;;;10.67;9.20;;;12.10;75.30;;;;;;5019686;28;20457;-85
2022/07/18 03:19:14;;;;;;;15.40;14.43;;;12.10;76.10;;;;;;5018672;28;20460;-84
2022/07/18 03:21:42;;;;;;;8.17;7.43;;;12.30;75.50;;;;;;5018081;28;20477;-84
2022/07/18 03:24:10;;;;;;;8.10;7.40;;;12.30;74.50;;;;;;5017319;28;20445;-84
2022/07/18 03:26:37;;;;;;;8.67;8.00;;;12.40;73.80;;;;;;5021012;28;20463;-84
2022/07/18 03:29:04;;;;;;;9.33;7.93;;;12.50;74.40;;;;;;5031240;28;20452;-84
2022/07/18 03:31:30;;;;;;;10.43;7.30;;;12.60;73.30;;;;;;5041443;28;20482;-84
2022/07/18 03:33:57;;;;;;;7.57;5.97;;;12.60;72.40;;;;;;5031613;28;20476;-83
2022/07/18 03:36:24;;;;;;;6.47;5.77;;;12.70;71.50;;;;;;5022242;28;20453;-84
2022/07/18 03:38:52;;;;;;;7.00;5.30;;;12.70;72.00;;;;;;5025824;28;20456;-86
2022/07/18 03:41:19;;;;;;;6.93;5.03;;;12.70;71.50;;;;;;5021726;28;20459;-85
2022/07/18 03:43:46;;;;;;;5.80;5.20;;;12.70;72.70;;;;;;5027856;28;20448;-83
2022/07/18 03:46:12;;;;;;;9.10;6.67;;;12.60;72.90;;;;;;5040846;28;20448;-84
2022/07/18 03:48:39;;;;;;;7.67;5.17;;;12.60;74.10;;;;;;5030710;28;20457;-87
2022/07/18 03:51:09;;;;;;;7.57;5.10;;;12.50;73.80;;;;;;5030789;28;20456;-86
2022/07/18 03:53:44;;;;;;;8.23;5.53;;;12.40;73.30;;;;;;5033436;28;20473;-86
2022/07/18 03:56:37;;;;;;;11.00;6.80;;;12.40;73.70;;;;;;5024768;28;20828;-86
2022/07/18 04:02:08;;;;;;;13.70;12.50;;;12.20;77.10;;;;;;5029830;28;20460;-86
2022/07/18 04:04:35;;;;;;;19.60;18.10;;;12.20;78.20;;;;;;5042987;28;20941;-85
2022/07/18 04:07:10;;;;;;;53.30;51.00;;;12.20;79.80;;;;;;5036275;28;20713;-85
2022/07/18 04:10:29;;;;;;;85.93;82.73;;;12.30;84.60;;;;;;5031190;28;20452;-86
2022/07/18 04:13:36;;;;;;;68.00;65.20;;;12.40;86.10;;;;;;5030778;28;20488;-86
2022/07/18 04:16:10;;;;;;;62.87;59.87;;;12.60;85.40;;;;;;5007201;28;20445;-86
2022/07/18 04:18:37;;;;;;;43.63;41.10;;;12.70;83.70;;;;;;5027729;28;20452;-86
2022/07/18 04:21:04;;;;;;;38.53;36.17;;;12.80;82.30;;;;;;5036706;28;20455;-86
2022/07/18 04:23:31;;;;;;;32.00;30.30;;;12.90;81.30;;;;;;5030590;28;20497;-85
2022/07/18 04:25:58;;;;;;;17.17;15.00;;;13.00;79.70;;;;;;5014922;28;20457;-85
2022/07/18 04:31:50;;;;;;;13.50;11.00;;;13.00;76.60;;;;;;5005020;28;20456;-86
2022/07/18 04:34:19;;;;;;;24.23;11.57;;;13.00;77.70;;;;;;5023795;28;21016;-86
2022/07/18 04:36:46;;;;;;;14.30;13.10;;;13.00;79.60;;;;;;5042384;28;20481;-85
2022/07/18 04:39:13;;;;;;;21.83;20.03;;;13.10;79.80;;;;;;5034363;28;20523;-85
2022/07/18 04:41:40;;;;;;;23.07;21.87;;;13.10;79.90;;;;;;5049023;28;20492;-82
2022/07/18 04:44:08;;;;;;;36.73;34.23;;;13.20;81.00;;;;;;5030949;28;20446;-85
2022/07/18 04:46:35;;;;;;;43.10;40.93;;;13.30;81.50;;;;;;5047072;28;20463;-85
2022/07/18 04:49:02;;;;;;;42.80;40.70;;;13.50;80.20;;;;;;5028082;28;20460;-85
2022/07/18 04:51:29;;;;;;;31.90;29.60;;;13.70;80.30;;;;;;5030852;28;20472;-85
2022/07/18 04:53:56;;;;;;;37.53;35.77;;;13.80;80.40;;;;;;5038423;28;20477;-84
2022/07/18 04:56:24;;;;;;;22.50;21.20;;;14.00;80.60;;;;;;5028886;28;20460;-85
2022/07/18 04:58:51;;;;;;;21.37;20.07;;;14.20;78.80;;;;;;5033728;28;20448;-85
2022/07/18 05:01:20;;;;;;;11.57;10.30;;;14.40;77.10;;;;;;5038271;28;20449;-84
2022/07/18 05:03:46;;;;;;;7.23;6.17;;;14.70;73.40;;;;;;5043826;28;20452;-83
2022/07/18 05:06:13;;;;;;;6.40;4.20;;;14.90;72.00;;;;;;5045585;28;20690;-85
2022/07/18 05:08:40;;;;;;;8.27;3.47;;;15.20;68.80;;;;;;5027178;28;20468;-85
2022/07/18 05:11:08;;;;;;;8.73;3.73;;;15.40;65.90;;;;;;5025816;28;20516;-85
2022/07/18 05:13:35;;;;;;;6.87;3.50;;;15.60;63.60;;;;;;5034517;28;20522;-84
2022/07/18 05:16:15;;;;;;;7.10;2.80;;;15.80;63.00;;;;;;5024826;28;20457;-85
2022/07/18 05:18:43;;;;;;;5.97;2.83;;;16.00;60.40;;;;;;5034254;28;20463;-85
2022/07/18 05:21:10;;;;;;;6.80;2.40;;;16.20;58.30;;;;;;5026321;28;20469;-85
2022/07/18 05:23:37;;;;;;;6.17;2.67;;;16.40;56.90;;;;;;5036779;28;20452;-84
2022/07/18 05:26:04;;;;;;;5.83;2.67;;;16.50;55.60;;;;;;5039183;28;20467;-86
2022/07/18 05:28:31;;;;;;;6.73;2.53;;;16.60;53.90;;;;;;5021309;28;20537;-85
2022/07/18 05:30:58;;;;;;;6.43;2.20;;;16.80;53.10;;;;;;5021544;28;20461;-85
2022/07/18 05:33:25;;;;;;;6.13;2.23;;;17.00;52.20;;;;;;5027528;28;20475;-85
2022/07/18 05:35:53;;;;;;;7.47;2.77;;;17.40;50.80;;;;;;5029986;28;20457;-86
2022/07/18 05:38:20;;;;;;;5.43;2.20;;;17.60;47.70;;;;;;5029739;28;20460;-85
2022/07/18 05:40:53;;;;;;;5.70;2.30;;;17.90;47.00;;;;;;5019045;28;20456;-87
2022/07/18 05:43:24;;;;;;;12.70;2.57;;;18.40;42.90;;;;;;5019785;28;20981;-87
2022/07/18 05:45:54;;;;;;;7.17;2.57;;;18.80;41.30;;;;;;5021864;28;20458;-87
2022/07/18 05:48:21;;;;;;;4.47;1.80;;;19.20;36.60;;;;;;5027461;28;20454;-87
2022/07/18 05:50:48;;;;;;;7.60;2.07;;;19.70;36.60;;;;;;5032362;28;20555;-86
2022/07/18 05:53:19;;;;;;;5.60;2.13;;;20.30;33.20;;;;;;5023465;28;20476;-87
2022/07/18 05:55:45;;;;;;;4.80;1.93;;;20.70;29.80;;;;;;5026933;28;20445;-86
2022/07/18 05:58:12;;;;;;;6.07;2.03;;;21.20;28.70;;;;;;5028284;28;20717;-86
2022/07/18 06:00:39;;;;;;;6.10;1.60;;;21.30;28.00;;;;;;5026355;28;20454;-87
2022/07/18 06:03:06;;;;;;;8.57;2.00;;;21.50;24.10;;;;;;5026368;28;20483;-85
2022/07/18 06:05:32;;;;;;;4.60;1.80;;;21.90;23.60;;;;;;5031058;28;20455;-85
2022/07/18 06:07:59;;;;;;;5.60;2.07;;;22.00;22.20;;;;;;5016586;28;20454;-85
2022/07/18 06:10:27;;;;;;;6.87;2.10;;;22.20;21.30;;;;;;5028668;28;20433;-84
2022/07/18 06:12:55;;;;;;;6.13;2.10;;;22.50;18.90;;;;;;5015144;28;20481;-85
2022/07/18 06:15:22;;;;;;;4.90;1.80;;;22.50;18.20;;;;;;5019091;28;20487;-85
2022/07/18 06:17:49;;;;;;;13.03;2.20;;;22.60;18.00;;;;;;5027033;28;20459;-85
2022/07/18 06:20:16;;;;;;;6.00;1.97;;;22.70;17.80;;;;;;5029392;28;20462;-85
2022/07/18 06:22:43;;;;;;;6.70;1.90;;;22.70;16.30;;;;;;5034349;28;20472;-85
2022/07/18 06:25:11;;;;;;;7.67;2.43;;;23.00;16.70;;;;;;5031646;28;20448;-85
2022/07/18 06:27:39;;;;;;;9.20;1.90;;;23.20;14.50;;;;;;5029575;28;20459;-85
2022/07/18 06:30:07;;;;;;;6.53;1.90;;;23.40;14.60;;;;;;5024688;28;20451;-85
2022/07/18 06:32:33;;;;;;;8.27;2.30;;;23.40;14.60;;;;;;5028858;28;20924;-85
2022/07/18 06:48:39;;;;;;;5.70;2.13;;;24.40;7.60;;;;;;4852844;29;21094;-83
2022/07/18 06:51:08;;;;;;;5.53;1.70;;;24.60;6.20;;;;;;5008212;28;20817;-83
2022/07/18 06:53:35;;;;;;;5.77;1.80;;;24.70;6.00;;;;;;5030778;28;20448;-83
2022/07/18 06:56:02;;;;;;;4.93;1.40;;;24.90;5.10;;;;;;5039823;28;20462;-82
2022/07/18 06:58:31;;;;;;;11.83;1.90;;;24.80;3.40;;;;;;5030876;28;20452;-83
2022/07/18 07:00:58;;;;;;;5.70;1.70;;;25.10;3.20;;;;;;5028073;28;20498;-86
2022/07/18 07:03:24;;;;;;;6.30;1.73;;;25.40;2.90;;;;;;5021997;28;20468;-86
2022/07/18 07:05:52;;;;;;;5.53;1.80;;;25.40;4.30;;;;;;5029482;28;20451;-86
2022/07/18 07:08:19;;;;;;;10.77;1.77;;;25.70;1.30;;;;;;5015694;28;20461;-87
2022/07/18 07:10:46;;;;;;;10.03;1.90;;;25.60;1.00;;;;;;5022000;28;20479;-86
2022/07/18 07:13:13;;;;;;;6.23;2.57;;;25.70;1.00;;;;;;5030981;28;20468;-86
2022/07/18 07:15:42;;;;;;;6.03;1.80;;;26.10;1.00;;;;;;5023582;28;20452;-85
2022/07/18 07:18:10;;;;;;;5.00;1.30;;;26.00;1.00;;;;;;5035102;28;20547;-87
2022/07/18 07:20:37;;;;;;;9.17;2.00;;;26.20;1.00;;;;;;5017058;28;20448;-87
2022/07/18 07:23:07;;;;;;;6.00;1.60;;;26.30;1.00;;;;;;5015108;28;20472;-86
2022/07/18 07:25:35;;;;;;;6.30;2.20;;;26.20;1.00;;;;;;5031115;28;20467;-86
2022/07/18 07:28:02;;;;;;;7.20;1.60;;;26.30;1.00;;;;;;5034988;28;20907;-87
2022/07/18 07:30:30;;;;;;;7.90;1.93;;;26.30;1.00;;;;;;5019208;28;20457;-87
2022/07/18 07:32:56;;;;;;;9.00;2.20;;;26.30;1.00;;;;;;5015021;28;20476;-85
2022/07/18 07:35:23;;;;;;;8.10;2.10;;;26.30;1.00;;;;;;5026567;28;20941;-86
2022/07/18 07:37:53;;;;;;;8.00;2.20;;;26.30;1.00;;;;;;5014947;28;20198;-86
2022/07/18 07:40:21;;;;;;;5.87;2.00;;;26.50;1.00;;;;;;5028462;28;20529;-85
2022/07/18 07:42:48;;;;;;;6.60;1.70;;;26.50;1.00;;;;;;5036861;28;20483;-83
2022/07/18 07:45:16;;;;;;;6.43;1.60;;;26.70;1.00;;;;;;5024289;28;20468;-83
2022/07/18 07:47:43;;;;;;;8.83;1.77;;;26.90;1.00;;;;;;5016318;28;20467;-83
2022/07/18 07:50:19;;;;;;;5.23;1.90;;;27.40;1.00;;;;;;5027655;28;20456;-86
2022/07/18 07:52:46;;;;;;;6.23;2.13;;;27.50;1.00;;;;;;5029997;28;20575;-84
2022/07/18 07:55:12;;;;;;;8.43;1.40;;;27.70;1.00;;;;;;5030960;28;20830;-82
2022/07/18 07:57:40;;;;;;;5.83;1.80;;;27.40;1.00;;;;;;5023523;28;20435;-83
2022/07/18 08:00:09;;;;;;;6.63;1.90;;;27.40;1.00;;;;;;5023475;28;20834;-86
2022/07/18 08:05:32;;;;;;;12.23;2.23;;;27.80;1.00;;;;;;5030206;28;20451;-83
2022/07/18 08:08:00;;;;;;;5.50;1.50;;;27.80;1.00;;;;;;5036069;28;20472;-83
2022/07/18 08:10:27;;;;;;;7.30;1.73;;;27.90;1.00;;;;;;5029687;28;20427;-83
2022/07/18 08:12:55;;;;;;;10.03;1.70;;;28.30;1.00;;;;;;5027197;28;20472;-83
2022/07/18 08:15:23;;;;;;;8.83;1.80;;;28.60;1.00;;;;;;5038108;28;20426;-83
2022/07/18 08:17:50;;;;;;;5.93;1.80;;;28.80;1.00;;;;;;5021925;28;20462;-83
2022/07/18 08:20:17;;;;;;;6.50;2.00;;;29.30;1.00;;;;;;5035157;28;20475;-83
2022/07/18 08:22:58;;;;;;;7.27;1.60;;;29.40;1.00;;;;;;5023013;28;20719;-83
2022/07/18 08:25:25;;;;;;;5.40;1.97;;;29.50;1.00;;;;;;5032613;28;20471;-83
2022/07/18 08:27:52;;;;;;;9.30;2.20;;;29.70;1.00;;;;;;5035782;28;20467;-83
2022/07/18 08:30:21;;;;;;;5.70;1.90;;;30.00;1.00;;;;;;5036595;28;20426;-83
2022/07/18 08:32:48;;;;;;;6.63;2.00;;;30.40;1.00;;;;;;5036098;28;20495;-83
2022/07/18 08:35:15;;;;;;;5.23;1.67;;;30.70;1.00;;;;;;5035187;28;20851;-83
2022/07/18 08:37:41;;;;;;;5.90;1.97;;;30.90;1.00;;;;;;5035297;28;20453;-83
2022/07/18 08:40:09;;;;;;;7.00;1.77;;;30.60;1.00;;;;;;5035657;28;20464;-83
2022/07/18 08:42:37;;;;;;;6.13;1.67;;;30.70;1.00;;;;;;5034739;28;20454;-82
2022/07/18 08:45:05;;;;;;;5.10;1.80;;;31.10;1.00;;;;;;5034702;28;20537;-83
2022/07/18 08:47:34;;;;;;;7.10;1.70;;;31.50;1.00;;;;;;5034957;28;20459;-84
2022/07/18 08:50:02;;;;;;;5.87;1.80;;;31.80;1.00;;;;;;5034837;28;20459;-86
2022/07/18 08:52:30;;;;;;;6.00;1.63;;;32.00;1.00;;;;;;5034823;28;20894;-87
2022/07/18 08:54:57;;;;;;;5.40;1.60;;;32.00;1.00;;;;;;5034740;28;20830;-86
2022/07/18 08:57:24;;;;;;;9.33;1.80;;;32.30;1.00;;;;;;5035334;28;20824;-86
2022/07/18 08:59:51;;;;;;;8.63;1.80;;;32.80;1.00;;;;;;5035376;28;20427;-84
2022/07/18 09:02:18;;;;;;;8.80;1.90;;;32.70;1.00;;;;;;5034576;28;20475;-84
2022/07/18 09:04:46;;;;;;;5.60;1.53;;;32.80;1.00;;;;;;5034657;28;21000;-85
2022/07/18 09:07:27;;;;;;;5.43;1.50;;;33.40;1.00;;;;;;5034284;28;20431;-82
2022/07/18 09:09:57;;;;;;;5.13;1.60;;;33.50;1.00;;;;;;5034994;28;20506;-82
2022/07/18 09:12:24;;;;;;;6.40;2.07;;;33.70;1.00;;;;;;5035037;28;20480;-82
2022/07/18 09:14:51;;;;;;;9.50;1.87;;;33.50;1.00;;;;;;5034088;28;20427;-82
2022/07/18 09:17:20;;;;;;;6.23;1.70;;;33.40;1.00;;;;;;5034339;28;20426;-82
2022/07/18 09:20:00;;;;;;;5.70;2.37;;;34.00;1.00;;;;;;5034484;28;20460;-83
2022/07/18 09:22:29;;;;;;;7.70;1.80;;;33.80;1.00;;;;;;5034367;28;20831;-82
2022/07/18 09:25:01;;;;;;;5.40;2.13;;;34.00;1.00;;;;;;5034290;28;20483;-81
2022/07/18 09:27:34;;;;;;;11.90;1.83;;;34.00;1.00;;;;;;5034168;28;20477;-82
2022/07/18 09:30:24;;;;;;;6.77;1.57;;;34.30;1.00;;;;;;5034681;28;20452;-82
2022/07/18 09:32:52;;;;;;;7.63;1.90;;;34.80;1.00;;;;;;5028758;28;20476;-82
2022/07/18 09:35:24;;;;;;;6.70;2.17;;;35.20;1.00;;;;;;5034401;28;20484;-82
2022/07/18 09:38:00;;;;;;;4.87;1.60;;;35.10;1.00;;;;;;5034305;28;20447;-82
2022/07/18 09:40:29;;;;;;;4.80;1.57;;;35.30;1.00;;;;;;5033967;28;20422;-80
2022/07/18 09:42:57;;;;;;;8.73;1.97;;;35.30;1.00;;;;;;5038476;28;20984;-83
2022/07/18 09:45:27;;;;;;;5.33;1.60;;;35.40;1.00;;;;;;5033651;28;20547;-83
2022/07/18 09:47:56;;;;;;;7.30;2.10;;;35.60;1.00;;;;;;5033719;28;20479;-82
2022/07/18 09:50:27;;;;;;;4.93;1.67;;;35.40;1.00;;;;;;5033919;28;20427;-83
2022/07/18 09:52:59;;;;;;;7.53;1.90;;;35.60;1.00;;;;;;5033965;28;20453;-83
2022/07/18 09:55:26;;;;;;;6.93;1.70;;;35.80;1.00;;;;;;5034052;28;20452;-83
2022/07/18 09:58:02;;;;;;;4.87;1.70;;;36.00;1.00;;;;;;5036504;28;20423;-77
2022/07/18 10:00:31;;;;;;;6.60;2.10;;;35.90;1.00;;;;;;5030987;28;20456;-77
2022/07/18 10:03:00;;;;;;;6.17;1.50;;;36.50;1.00;;;;;;5032359;28;20504;-77
2022/07/18 10:05:29;;;;;;;5.90;1.70;;;37.20;1.00;;;;;;5031627;28;20454;-78
2022/07/18 10:07:58;;;;;;;5.83;1.50;;;36.70;1.00;;;;;;5031902;28;20471;-78
2022/07/18 10:10:25;;;;;;;5.20;1.73;;;36.30;1.00;;;;;;5031997;28;20430;-78
2022/07/18 10:12:55;;;;;;;5.10;1.50;;;35.60;1.00;;;;;;5031756;28;20446;-77
2022/07/18 10:15:23;;;;;;;4.60;1.80;;;36.00;1.00;;;;;;5031479;28;20454;-78
2022/07/18 10:17:50;;;;;;;5.37;1.50;;;36.00;1.00;;;;;;5031786;28;20426;-77
2022/07/18 10:20:18;;;;;;;6.53;1.67;;;36.40;1.00;;;;;;5031929;28;20517;-78
2022/07/18 10:22:47;;;;;;;19.90;2.13;;;36.70;1.00;;;;;;5032060;28;20829;-78
2022/07/18 10:25:14;;;;;;;5.13;1.80;;;36.90;1.00;;;;;;5031206;28;20484;-78
2022/07/18 10:27:51;;;;;;;7.67;1.80;;;36.70;1.00;;;;;;5035222;28;20807;-78
2022/07/18 10:30:29;;;;;;;7.57;1.73;;;37.80;1.00;;;;;;5036348;28;20433;-78
2022/07/18 10:32:56;;;;;;;5.87;1.60;;;38.60;1.00;;;;;;5036927;28;20475;-79
2022/07/18 10:35:59;;;;;;;5.00;1.57;;;38.90;1.00;;;;;;5037702;28;20459;-82
2022/07/18 10:38:27;;;;;;;7.30;1.80;;;38.60;1.00;;;;;;5037088;28;20826;-83
2022/07/18 10:41:06;;;;;;;4.77;1.50;;;39.60;1.00;;;;;;5037440;28;20204;-83
2022/07/18 10:43:39;;;;;;;5.40;1.70;;;40.10;1.00;;;;;;5037328;28;20773;-81
2022/07/18 10:46:08;;;;;;;10.37;2.00;;;40.40;1.00;;;;;;5037072;28;20487;-84
2022/07/18 10:48:55;;;;;;;6.10;1.43;;;39.90;1.00;;;;;;5037080;28;20546;-82
2022/07/18 10:51:30;;;;;;;7.37;2.27;;;39.10;1.00;;;;;;5037304;28;20426;-82
2022/07/18 10:54:06;;;;;;;6.57;1.40;;;39.40;1.00;;;;;;5037661;28;20451;-81
2022/07/18 10:57:10;;;;;;;8.40;2.40;;;39.50;1.00;;;;;;5037562;28;20458;-83
2022/07/18 11:00:01;;;;;;;6.60;1.87;;;39.00;1.00;;;;;;5038230;28;20455;-82
2022/07/18 11:02:36;;;;;;;9.40;1.90;;;39.10;1.00;;;;;;5037606;28;20837;-83
2022/07/18 11:05:24;;;;;;;5.70;1.93;;;39.00;1.00;;;;;;5036990;28;20479;-84
2022/07/18 11:08:18;;;;;;;6.00;1.50;;;38.40;1.00;;;;;;5036774;28;20474;-83
2022/07/18 11:11:09;;;;;;;5.80;2.20;;;38.10;1.00;;;;;;5037162;28;20957;-82
2022/07/18 11:13:38;;;;;;;5.20;1.67;;;38.70;1.00;;;;;;5037202;28;20447;-83
2022/07/18 11:16:09;;;;;;;7.93;1.83;;;39.30;1.00;;;;;;5036712;28;20948;-83
2022/07/18 11:19:29;;;;;;;5.80;1.40;;;39.60;1.00;;;;;;5037202;28;20822;-83
2022/07/18 11:21:59;;;;;;;6.80;1.60;;;40.40;1.00;;;;;;5036213;28;20468;-83
2022/07/18 11:24:27;;;;;;;4.30;1.30;;;39.30;1.00;;;;;;5036413;28;20437;-83
2022/07/18 11:26:56;;;;;;;6.77;1.50;;;40.10;1.00;;;;;;5036238;28;20828;-83
2022/07/18 11:29:22;;;;;;;6.33;1.83;;;40.60;1.00;;;;;;5036711;28;21002;-82
2022/07/18 11:31:50;;;;;;;7.13;1.70;;;41.00;1.00;;;;;;5036314;28;20478;-83
2022/07/18 11:34:17;;;;;;;5.40;1.80;;;40.70;1.00;;;;;;5036593;28;20430;-83
2022/07/18 11:36:47;;;;;;;7.37;2.03;;;40.70;1.00;;;;;;5035720;28;20454;-84
2022/07/18 11:39:14;;;;;;;8.00;1.90;;;40.70;1.00;;;;;;5036442;28;20521;-83
2022/07/18 11:41:42;;;;;;;5.90;1.63;;;41.10;1.00;;;;;;5036069;28;20500;-83
2022/07/18 11:44:21;;;;;;;6.67;2.20;;;41.20;1.00;;;;;;5035933;28;20954;-83
2022/07/18 11:46:48;;;;;;;6.23;1.50;;;40.80;1.00;;;;;;5035531;28;20475;-82
2022/07/18 11:49:15;;;;;;;8.23;1.90;;;40.20;1.00;;;;;;5035789;28;20460;-84
2022/07/18 11:51:43;;;;;;;8.00;1.97;;;40.20;1.00;;;;;;5036626;28;20453;-83
2022/07/18 11:54:11;;;;;;;4.70;1.50;;;41.00;1.00;;;;;;5036662;28;20437;-83
2022/07/18 11:56:48;;;;;;;5.57;1.83;;;41.60;1.00;;;;;;5037175;28;20451;-83
2022/07/18 11:59:15;;;;;;;5.73;1.80;;;42.20;1.00;;;;;;5035773;28;20838;-83
2022/07/18 12:01:44;;;;;;;8.90;2.03;;;42.30;1.00;;;;;;5036360;28;20472;-84
2022/07/18 12:04:19;;;;;;;4.70;1.53;;;42.30;1.00;;;;;;5035401;28;20967;-83
2022/07/18 12:06:46;;;;;;;12.20;2.20;;;42.10;1.00;;;;;;5035601;28;20503;-83
2022/07/18 12:09:13;;;;;;;6.27;1.60;;;41.60;1.00;;;;;;5035401;28;20839;-83
2022/07/18 12:11:40;;;;;;;6.13;2.13;;;41.10;1.00;;;;;;5035341;28;20482;-83
2022/07/18 12:14:15;;;;;;;5.40;1.57;;;41.90;1.00;;;;;;5036411;28;20459;-83
2022/07/18 12:16:46;;;;;;;5.70;2.27;;;42.20;1.00;;;;;;5035752;28;20467;-83
2022/07/18 12:19:14;;;;;;;4.90;1.73;;;42.10;1.00;;;;;;5035472;28;20513;-84
2022/07/18 12:21:43;;;;;;;11.93;1.70;;;41.60;1.00;;;;;;5035384;28;20526;-83
2022/07/18 12:24:24;;;;;;;6.53;1.67;;;42.20;1.00;;;;;;5035408;28;20495;-83
2022/07/18 12:27:19;;;;;;;7.80;2.00;;;42.40;1.00;;;;;;5034924;28;20525;-84
2022/07/18 12:30:02;;;;;;;7.60;2.10;;;42.60;1.00;;;;;;5030282;28;20462;-83
2022/07/18 12:32:36;;;;;;;7.90;1.50;;;43.30;1.00;;;;;;5035545;28;20450;-83
2022/07/18 12:35:06;;;;;;;4.47;1.43;;;43.50;1.00;;;;;;5034978;28;20963;-83
2022/07/18 12:37:33;;;;;;;7.70;2.30;;;42.80;1.00;;;;;;5039489;28;20498;-81
2022/07/18 12:40:01;;;;;;;5.30;1.53;;;42.30;1.00;;;;;;5045431;28;20208;-81
2022/07/18 12:42:31;;;;;;;6.60;1.60;;;42.50;1.00;;;;;;5045705;28;20446;-81
2022/07/18 12:44:58;;;;;;;5.73;1.93;;;42.30;1.00;;;;;;5046211;28;20434;-81
2022/07/18 12:47:25;;;;;;;4.67;1.70;;;43.10;1.00;;;;;;5043896;28;20468;-85
2022/07/18 12:49:55;;;;;;;7.23;1.67;;;44.00;1.00;;;;;;5041849;28;20463;-82
2022/07/18 12:52:22;;;;;;;9.43;2.10;;;43.30;1.00;;;;;;5036870;28;20471;-83
2022/07/18 12:54:50;;;;;;;8.10;2.07;;;43.30;1.00;;;;;;5035932;28;20456;-84
2022/07/18 12:57:16;;;;;;;4.20;1.57;;;42.80;1.00;;;;;;5035148;28;20452;-84
2022/07/18 12:59:48;;;;;;;11.20;2.17;;;42.10;1.00;;;;;;5035148;28;20429;-83
2022/07/18 13:02:16;;;;;;;4.83;1.40;;;42.80;1.00;;;;;;5034792;28;20558;-86
2022/07/18 13:04:43;;;;;;;7.70;1.67;;;42.50;1.00;;;;;;5034104;28;20437;-85
2022/07/18 13:07:14;;;;;;;7.30;2.20;;;42.20;1.00;;;;;;5033830;28;20461;-86
2022/07/18 13:09:41;;;;;;;5.00;1.30;;;42.30;1.00;;;;;;5033896;28;20430;-87
2022/07/18 13:12:08;;;;;;;5.97;1.70;;;42.60;1.00;;;;;;5034203;28;20483;-85
2022/07/18 13:14:36;;;;;;;6.20;2.10;;;41.50;1.00;;;;;;5034405;28;20475;-86
2022/07/18 13:17:03;;;;;;;6.27;2.03;;;42.90;1.00;;;;;;5033695;28;20453;-86
2022/07/18 13:19:30;;;;;;;5.83;1.97;;;42.50;1.00;;;;;;5033816;28;20451;-86
2022/07/18 13:21:59;;;;;;;6.63;1.83;;;42.20;1.00;;;;;;5033903;28;20475;-85
2022/07/18 13:24:30;;;;;;;5.70;1.40;;;42.50;1.00;;;;;;5033865;28;20430;-86